sensor_id;sensor_type;location;lat;lon;timestamp;pressure;altitude;pressure_sealevel;temperature;humidity
11648;BME280;5880;52.342;9.662;2023-08-17T00:00:01;101360.75;;;25.17;48.83
11648;BME280;5880;52.342;9.662;2023-08-17T00:02:28;101349.06;;;25.15;49.09
11648;BME280;5880;52.342;9.662;2023-08-17T00:04:54;101348.31;;;25.10;49.20
11648;BME280;5880;52.342;9.662;2023-08-17T00:07:20;101341.25;;;25.12;49.06
11648;BME280;5880;52.342;9.662;2023-08-17T00:09:45;101337.13;;;25.10;49.23
11648;BME280;5880;52.342;9.662;2023-08-17T00:12:11;101324.81;;;25.11;49.28
11648;BME280;5880;52.342;9.662;2023-08-17T00:14:37;101327.41;;;25.07;nan
11648;BME280;5880;52.342;9.662;2023-08-17T00:17:02;101334.34;;;25.10;49.26
11648;BME280;5880;52.342;9.662;2023-08-17T00:19:28;101343.56;;;25.10;49.81
11648;BME280;5880;52.342;9.662;2023-08-17T00:21:54;101348.31;;;25.10;49.80
11648;BME280;5880;52.342;9.662;2023-08-17T00:24:21;101347.81;;;25.08;49.97
11648;BME280;5880;52.342;9.662;2023-08-17T00:26:46;101347.81;;;25.08;49.80
11648;BME280;5880;52.342;9.662;2023-08-17T00:29:12;101347.50;;;25.09;49.81
11648;BME280;5880;52.342;9.662;2023-08-17T00:31:40;101337.59;;;25.03;49.93
11648;BME280;5880;52.342;9.662;2023-08-17T00:34:05;101339.44;;;25.08;50.07
11648;BME280;5880;52.342;9.662;2023-08-17T00:36:31;101340.03;;;25.04;50.22
11648;BME280;5880;52.342;9.662;2023-08-17T00:38:57;101325.66;;;24.97;50.17
11648;BME280;5880;52.342;9.662;2023-08-17T00:41:22;101332.28;;;25.01;50.50
11648;BME280;5880;52.342;9.662;2023-08-17T00:43:48;101332.28;;;25.01;50.51
11648;BME280;5880;52.342;9.662;2023-08-17T00:46:13;101322.88;;;24.97;50.37
11648;BME280;5880;52.342;9.662;2023-08-17T00:48:40;101322.88;;;24.97;50.85
11648;BME280;5880;52.342;9.662;2023-08-17T00:51:07;101322.97;;;24.92;50.84
11648;BME280;5880;52.342;9.662;2023-08-17T00:53:32;101332.53;;;24.91;50.64
11648;BME280;5880;52.342;9.662;2023-08-17T00:56:00;101340.06;;;24.91;50.72
11648;BME280;5880;52.342;9.662;2023-08-17T00:58:27;101334.28;;;24.87;51.14
11648;BME280;5880;52.342;9.662;2023-08-17T01:00:53;101333.75;;;24.85;50.95
11648;BME280;5880;52.342;9.662;2023-08-17T01:03:20;101334.38;;;24.82;50.80
11648;BME280;5880;52.342;9.662;2023-08-17T01:05:47;101329.09;;;24.80;51.19
11648;BME280;5880;52.342;9.662;2023-08-17T01:08:13;101335.00;;;24.79;51.32
11648;BME280;5880;52.342;9.662;2023-08-17T01:10:57;101328.06;;;24.76;51.02
11648;BME280;5880;52.342;9.662;2023-08-17T01:14:05;101331.28;;;24.70;51.15
11648;BME280;5880;52.342;9.662;2023-08-17T01:16:51;101341.22;;;24.62;51.45
11648;BME280;5880;52.342;9.662;2023-08-17T01:19:26;101331.25;;;24.56;51.54
11648;BME280;5880;52.342;9.662;2023-08-17T01:22:00;101346.09;;;24.56;51.87
11648;BME280;5880;52.342;9.662;2023-08-17T01:24:27;101350.09;;;24.50;51.72
11648;BME280;5880;52.342;9.662;2023-08-17T01:26:53;101345.16;;;24.47;51.64
11648;BME280;5880;52.342;9.662;2023-08-17T01:29:19;101334.63;;;24.39;52.03
11648;BME280;5880;52.342;9.662;2023-08-17T01:34:59;101332.25;;;24.32;52.22
11648;BME280;5880;52.342;9.662;2023-08-17T01:37:31;101338.88;;;24.36;52.01
11648;BME280;5880;52.342;9.662;2023-08-17T01:39:59;101336.19;;;24.31;52.59
11648;BME280;5880;52.342;9.662;2023-08-17T01:42:26;101333.69;;;24.30;52.64
11648;BME280;5880;52.342;9.662;2023-08-17T01:44:51;101340.97;;;24.31;52.47
11648;BME280;5880;52.342;9.662;2023-08-17T01:47:23;101339.09;;;24.26;52.58
11648;BME280;5880;52.342;9.662;2023-08-17T01:49:50;101339.63;;;24.28;52.39
11648;BME280;5880;52.342;9.662;2023-08-17T01:52:15;101332.16;;;24.23;52.40
11648;BME280;5880;52.342;9.662;2023-08-17T01:54:41;101320.75;;;24.20;52.41
11648;BME280;5880;52.342;9.662;2023-08-17T01:57:07;101327.78;;;24.17;52.58
11648;BME280;5880;52.342;9.662;2023-08-17T01:59:32;101335.34;;;24.17;53.04
11648;BME280;5880;52.342;9.662;2023-08-17T02:01:58;101330.06;;;24.15;53.16
11648;BME280;5880;52.342;9.662;2023-08-17T02:04:25;101322.31;;;24.12;52.88
11648;BME280;5880;52.342;9.662;2023-08-17T02:06:50;101317.34;;;24.09;53.00
11648;BME280;5880;52.342;9.662;2023-08-17T02:09:16;101306.56;;;24.02;53.13
11648;BME280;5880;52.342;9.662;2023-08-17T02:11:42;101308.00;;;24.00;53.15
11648;BME280;5880;52.342;9.662;2023-08-17T02:14:07;101308.41;;;23.93;53.05
11648;BME280;5880;52.342;9.662;2023-08-17T02:16:33;101300.50;;;23.82;53.17
11648;BME280;5880;52.342;9.662;2023-08-17T02:18:59;101305.34;;;23.76;53.33
11648;BME280;5880;52.342;9.662;2023-08-17T02:21:25;101312.19;;;23.65;53.38
11648;BME280;5880;52.342;9.662;2023-08-17T02:23:51;101304.22;;;23.58;53.44
11648;BME280;5880;52.342;9.662;2023-08-17T02:26:16;101303.78;;;23.51;53.64
11648;BME280;5880;52.342;9.662;2023-08-17T02:28:42;101304.06;;;23.49;54.04
11648;BME280;5880;52.342;9.662;2023-08-17T02:31:08;101292.75;;;23.41;53.93
11648;BME280;5880;52.342;9.662;2023-08-17T02:33:33;101297.53;;;23.40;53.90
11648;BME280;5880;52.342;9.662;2023-08-17T02:35:59;101291.13;;;23.39;53.95
11648;BME280;5880;52.342;9.662;2023-08-17T02:38:25;101293.09;;;23.39;54.14
11648;BME280;5880;52.342;9.662;2023-08-17T02:40:51;101279.00;;;23.30;54.05
11648;BME280;5880;52.342;9.662;2023-08-17T02:43:16;101286.53;;;23.30;54.37
11648;BME280;5880;52.342;9.662;2023-08-17T02:45:42;101271.81;;;23.24;54.54
11648;BME280;5880;52.342;9.662;2023-08-17T02:48:08;101270.38;;;23.27;54.54
11648;BME280;5880;52.342;9.662;2023-08-17T02:50:33;101271.53;;;23.26;54.68
11648;BME280;5880;52.342;9.662;2023-08-17T02:52:59;101262.94;;;23.22;54.65
11648;BME280;5880;52.342;9.662;2023-08-17T02:55:25;101266.03;;;23.21;54.88
11648;BME280;5880;52.342;9.662;2023-08-17T02:57:51;101262.72;;;23.18;54.92
11648;BME280;5880;52.342;9.662;2023-08-17T03:00:16;101256.59;;;23.16;54.94
11648;BME280;5880;52.342;9.662;2023-08-17T03:02:42;101254.94;;;23.15;55.12
11648;BME280;5880;52.342;9.662;2023-08-17T03:05:08;101248.88;;;23.13;55.23
11648;BME280;5880;52.342;9.662;2023-08-17T03:07:33;101233.31;;;23.07;55.32
11648;BME280;5880;52.342;9.662;2023-08-17T03:09:59;101239.44;;;23.09;55.23
11648;BME280;5880;52.342;9.662;2023-08-17T03:12:25;101230.53;;;23.07;55.51
11648;BME280;5880;52.342;9.662;2023-08-17T03:14:50;101226.13;;;23.06;55.45
11648;BME280;5880;52.342;9.662;2023-08-17T03:17:16;101213.66;;;22.99;55.57
11648;BME280;5880;52.342;9.662;2023-08-17T03:19:41;101207.84;;;22.95;55.77
11648;BME280;5880;52.342;9.662;2023-08-17T03:22:08;101210.31;;;22.96;55.76
11648;BME280;5880;52.342;9.662;2023-08-17T03:24:34;101214.53;;;22.94;55.93
11648;BME280;5880;52.342;9.662;2023-08-17T03:27:00;101215.88;;;22.96;55.78
11648;BME280;5880;52.342;9.662;2023-08-17T03:29:25;101219.53;;;22.97;56.20
11648;BME280;5880;52.342;9.662;2023-08-17T03:31:52;101209.81;;;22.94;56.17
11648;BME280;5880;52.342;9.662;2023-08-17T03:34:18;101216.16;;;23.00;56.15
11648;BME280;5880;52.342;9.662;2023-08-17T03:36:43;101209.97;;;23.03;56.17
11648;BME280;5880;52.342;9.662;2023-08-17T03:39:09;101193.03;;;23.00;56.15
11648;BME280;5880;52.342;9.662;2023-08-17T03:41:35;101195.50;;;23.01;56.02
11648;BME280;5880;52.342;9.662;2023-08-17T03:44:03;101204.09;;;23.05;56.32
11648;BME280;5880;52.342;9.662;2023-08-17T03:46:31;101211.66;;;23.04;56.27
11648;BME280;5880;52.342;9.662;2023-08-17T03:48:57;101209.75;;;23.00;56.57
11648;BME280;5880;52.342;9.662;2023-08-17T03:51:23;101221.47;;;22.96;56.56
11648;BME280;5880;52.342;9.662;2023-08-17T03:53:48;101212.59;;;22.94;56.65
11648;BME280;5880;52.342;9.662;2023-08-17T03:56:14;101210.09;;;22.93;56.95
11648;BME280;5880;52.342;9.662;2023-08-17T03:58:41;101204.91;;;22.86;56.83
11648;BME280;5880;52.342;9.662;2023-08-17T04:01:07;101215.22;;;22.86;57.02
11648;BME280;5880;52.342;9.662;2023-08-17T04:03:33;101213.88;;;22.83;57.15
11648;BME280;5880;52.342;9.662;2023-08-17T04:06:05;101210.56;;;22.81;57.17
11648;BME280;5880;52.342;9.662;2023-08-17T04:08:31;101219.72;;;22.82;57.43
11648;BME280;5880;52.342;9.662;2023-08-17T04:10:57;101222.31;;;22.78;57.45
11648;BME280;5880;52.342;9.662;2023-08-17T04:13:23;101222.88;;;22.75;57.72
11648;BME280;5880;52.342;9.662;2023-08-17T04:15:48;101232.59;;;22.77;57.77
11648;BME280;5880;52.342;9.662;2023-08-17T04:18:14;101229.00;;;22.77;58.02
11648;BME280;5880;52.342;9.662;2023-08-17T04:20:39;101236.06;;;22.69;58.12
11648;BME280;5880;52.342;9.662;2023-08-17T04:23:05;101234.41;;;22.68;58.06
11648;BME280;5880;52.342;9.662;2023-08-17T04:25:31;101239.69;;;22.70;58.24
11648;BME280;5880;52.342;9.662;2023-08-17T04:27:56;101251.00;;;22.79;58.09
11648;BME280;5880;52.342;9.662;2023-08-17T04:30:22;101251.00;;;22.79;58.03
11648;BME280;5880;52.342;9.662;2023-08-17T04:32:48;101261.16;;;22.88;58.16
11648;BME280;5880;52.342;9.662;2023-08-17T04:35:20;101257.19;;;22.94;57.91
11648;BME280;5880;52.342;9.662;2023-08-17T04:37:46;101249.72;;;22.90;58.06
11648;BME280;5880;52.342;9.662;2023-08-17T04:40:13;101251.00;;;22.97;58.08
11648;BME280;5880;52.342;9.662;2023-08-17T04:42:39;101247.97;;;22.94;58.13
11648;BME280;5880;52.342;9.662;2023-08-17T04:45:06;101250.19;;;22.97;58.17
11648;BME280;5880;52.342;9.662;2023-08-17T04:47:31;101254.09;;;22.96;58.23
11648;BME280;5880;52.342;9.662;2023-08-17T04:49:57;101256.06;;;22.95;58.29
11648;BME280;5880;52.342;9.662;2023-08-17T04:52:23;101265.75;;;22.98;58.28
11648;BME280;5880;52.342;9.662;2023-08-17T04:54:48;101270.47;;;23.03;58.24
11648;BME280;5880;52.342;9.662;2023-08-17T04:57:14;101272.34;;;23.07;58.10
11648;BME280;5880;52.342;9.662;2023-08-17T04:59:40;101274.31;;;23.07;58.18
11648;BME280;5880;52.342;9.662;2023-08-17T05:02:06;101277.56;;;23.14;58.31
11648;BME280;5880;52.342;9.662;2023-08-17T05:04:32;101272.53;;;23.16;58.15
11648;BME280;5880;52.342;9.662;2023-08-17T05:06:57;101281.09;;;23.20;58.19
11648;BME280;5880;52.342;9.662;2023-08-17T05:09:23;101276.03;;;23.22;58.18
11648;BME280;5880;52.342;9.662;2023-08-17T05:11:49;101276.34;;;23.20;58.22
11648;BME280;5880;52.342;9.662;2023-08-17T05:14:14;101277.72;;;23.23;58.09
11648;BME280;5880;52.342;9.662;2023-08-17T05:16:40;101278.00;;;23.21;58.01
11648;BME280;5880;52.342;9.662;2023-08-17T05:19:06;101281.34;;;23.23;58.29
11648;BME280;5880;52.342;9.662;2023-08-17T05:21:31;101284.34;;;23.27;58.18
11648;BME280;5880;52.342;9.662;2023-08-17T05:23:57;101287.13;;;23.27;57.94
11648;BME280;5880;52.342;9.662;2023-08-17T05:26:23;101274.31;;;23.26;57.85
11648;BME280;5880;52.342;9.662;2023-08-17T05:28:48;101280.44;;;23.28;58.14
11648;BME280;5880;52.342;9.662;2023-08-17T05:31:14;101272.97;;;23.23;58.28
11648;BME280;5880;52.342;9.662;2023-08-17T05:33:40;101283.22;;;23.28;58.26
11648;BME280;5880;52.342;9.662;2023-08-17T05:36:08;101279.59;;;23.27;58.26
11648;BME280;5880;52.342;9.662;2023-08-17T05:38:34;101276.28;;;23.25;58.38
11648;BME280;5880;52.342;9.662;2023-08-17T05:41:00;101279.59;;;23.27;58.30
11648;BME280;5880;52.342;9.662;2023-08-17T05:43:27;101281.25;;;23.28;58.40
11648;BME280;5880;52.342;9.662;2023-08-17T05:45:53;101278.75;;;23.27;58.35
11648;BME280;5880;52.342;9.662;2023-08-17T05:48:19;101285.69;;;23.29;58.34
11648;BME280;5880;52.342;9.662;2023-08-17T05:50:48;101277.41;;;23.24;58.48
11648;BME280;5880;52.342;9.662;2023-08-17T05:53:14;101283.75;;;23.30;58.57
11648;BME280;5880;52.342;9.662;2023-08-17T05:55:40;101278.47;;;23.28;58.34
11648;BME280;5880;52.342;9.662;2023-08-17T05:58:06;101281.25;;;23.28;58.40
11648;BME280;5880;52.342;9.662;2023-08-17T06:00:31;101283.41;;;23.31;58.54
11648;BME280;5880;52.342;9.662;2023-08-17T06:02:57;101281.47;;;23.32;58.57
11648;BME280;5880;52.342;9.662;2023-08-17T06:05:28;101285.69;;;23.29;58.55
11648;BME280;5880;52.342;9.662;2023-08-17T06:07:57;101292.59;;;23.32;58.74
11648;BME280;5880;52.342;9.662;2023-08-17T06:10:23;101293.47;;;23.32;58.64
11648;BME280;5880;52.342;9.662;2023-08-17T06:12:53;101289.25;;;23.35;58.61
11648;BME280;5880;52.342;9.662;2023-08-17T06:15:19;101288.72;;;23.33;58.79
11648;BME280;5880;52.342;9.662;2023-08-17T06:17:44;101283.41;;;23.31;58.84
11648;BME280;5880;52.342;9.662;2023-08-17T06:20:11;101292.09;;;23.30;58.97
11648;BME280;5880;52.342;9.662;2023-08-17T06:22:37;101286.53;;;23.30;58.85
11648;BME280;5880;52.342;9.662;2023-08-17T06:25:04;101287.34;;;23.30;58.90
11648;BME280;5880;52.342;9.662;2023-08-17T06:27:31;101288.19;;;23.31;58.97
11648;BME280;5880;52.342;9.662;2023-08-17T06:29:57;101287.88;;;23.32;58.96
11648;BME280;5880;52.342;9.662;2023-08-17T06:32:23;101286.75;;;23.33;58.95
11648;BME280;5880;52.342;9.662;2023-08-17T06:34:49;101298.97;;;23.37;58.92
11648;BME280;5880;52.342;9.662;2023-08-17T06:37:14;101298.66;;;23.39;59.03
11648;BME280;5880;52.342;9.662;2023-08-17T06:39:40;101305.59;;;23.42;58.91
11648;BME280;5880;52.342;9.662;2023-08-17T06:42:06;101305.28;;;23.43;58.98
11648;BME280;5880;52.342;9.662;2023-08-17T06:44:32;101300.84;;;23.42;58.81
11648;BME280;5880;52.342;9.662;2023-08-17T06:46:57;101295.56;;;23.41;59.02
11648;BME280;5880;52.342;9.662;2023-08-17T06:49:25;101303.84;;;23.46;58.93
11648;BME280;5880;52.342;9.662;2023-08-17T06:51:50;101291.13;;;23.39;58.90
11648;BME280;5880;52.342;9.662;2023-08-17T06:54:16;101294.34;;;23.47;58.97
11648;BME280;5880;52.342;9.662;2023-08-17T06:56:42;101296.81;;;23.48;59.00
11648;BME280;5880;52.342;9.662;2023-08-17T06:59:07;101297.44;;;23.45;58.97
11648;BME280;5880;52.342;9.662;2023-08-17T07:01:33;101300.84;;;23.42;58.90
11648;BME280;5880;52.342;9.662;2023-08-17T07:03:59;101302.47;;;23.43;59.11
11648;BME280;5880;52.342;9.662;2023-08-17T07:06:25;101291.13;;;23.39;58.91
11648;BME280;5880;52.342;9.662;2023-08-17T07:08:50;101306.63;;;23.46;59.16
11648;BME280;5880;52.342;9.662;2023-08-17T07:11:18;101295.78;;;23.44;59.18
11648;BME280;5880;52.342;9.662;2023-08-17T07:13:44;101296.91;;;23.43;59.06
11648;BME280;5880;52.342;9.662;2023-08-17T07:16:10;101301.38;;;23.44;59.21
11648;BME280;5880;52.342;9.662;2023-08-17T07:18:35;101305.59;;;23.42;59.43
11648;BME280;5880;52.342;9.662;2023-08-17T07:21:01;101310.31;;;23.41;59.31
11648;BME280;5880;52.342;9.662;2023-08-17T07:23:27;101308.38;;;23.42;59.27
11648;BME280;5880;52.342;9.662;2023-08-17T07:25:52;101314.25;;;23.40;59.16
11648;BME280;5880;52.342;9.662;2023-08-17T07:28:18;101308.38;;;23.42;59.26
11648;BME280;5880;52.342;9.662;2023-08-17T07:30:44;101300.03;;;23.42;59.30
11648;BME280;5880;52.342;9.662;2023-08-17T07:33:09;101301.97;;;23.41;59.14
11648;BME280;5880;52.342;9.662;2023-08-17T07:35:35;101300.59;;;23.38;59.37
11648;BME280;5880;52.342;9.662;2023-08-17T07:38:01;101309.75;;;23.44;59.26
11648;BME280;5880;52.342;9.662;2023-08-17T07:40:26;101293.59;;;23.41;59.32
11648;BME280;5880;52.342;9.662;2023-08-17T07:42:52;101305.28;;;23.43;59.22
11648;BME280;5880;52.342;9.662;2023-08-17T07:45:18;101296.00;;;23.48;59.48
11648;BME280;5880;52.342;9.662;2023-08-17T07:47:44;101297.69;;;23.49;59.40
11648;BME280;5880;52.342;9.662;2023-08-17T07:50:09;101309.03;;;23.52;59.42
11648;BME280;5880;52.342;9.662;2023-08-17T07:52:35;101308.75;;;23.54;59.39
11648;BME280;5880;52.342;9.662;2023-08-17T07:55:01;101310.38;;;23.55;59.29
11648;BME280;5880;52.342;9.662;2023-08-17T07:57:26;101311.25;;;23.55;59.24
11648;BME280;5880;52.342;9.662;2023-08-17T07:59:53;101320.09;;;23.57;59.42
11648;BME280;5880;52.342;9.662;2023-08-17T08:02:19;101313.72;;;23.57;59.24
11648;BME280;5880;52.342;9.662;2023-08-17T08:04:45;101323.50;;;23.54;59.34
11648;BME280;5880;52.342;9.662;2023-08-17T08:07:11;101317.72;;;23.51;59.29
11648;BME280;5880;52.342;9.662;2023-08-17T08:09:36;101312.72;;;23.48;59.51
11648;BME280;5880;52.342;9.662;2023-08-17T08:12:02;101320.06;;;23.44;59.38
11648;BME280;5880;52.342;9.662;2023-08-17T08:14:28;101320.66;;;23.41;59.55
11648;BME280;5880;52.342;9.662;2023-08-17T08:16:55;101324.59;;;23.39;59.61
11648;BME280;5880;52.342;9.662;2023-08-17T08:19:20;101322.91;;;23.38;59.82
11648;BME280;5880;52.342;9.662;2023-08-17T08:21:46;101329.84;;;23.41;59.70
11648;BME280;5880;52.342;9.662;2023-08-17T08:24:12;101321.47;;;23.41;59.71
11648;BME280;5880;52.342;9.662;2023-08-17T08:26:37;101326.78;;;23.43;59.73
11648;BME280;5880;52.342;9.662;2023-08-17T08:29:03;101323.91;;;23.48;59.90
11648;BME280;5880;52.342;9.662;2023-08-17T08:31:29;101323.59;;;23.49;59.85
11648;BME280;5880;52.342;9.662;2023-08-17T08:33:54;101322.47;;;23.50;60.08
11648;BME280;5880;52.342;9.662;2023-08-17T08:36:20;101325.47;;;23.54;59.90
11648;BME280;5880;52.342;9.662;2023-08-17T08:38:46;101314.84;;;23.56;60.14
11648;BME280;5880;52.342;9.662;2023-08-17T08:41:12;101320.34;;;23.61;60.25
11648;BME280;5880;52.342;9.662;2023-08-17T08:43:38;101318.28;;;23.67;60.19
11648;BME280;5880;52.342;9.662;2023-08-17T08:46:04;101319.06;;;23.72;60.08
11648;BME280;5880;52.342;9.662;2023-08-17T08:48:32;101312.31;;;23.73;59.95
11648;BME280;5880;52.342;9.662;2023-08-17T08:51:00;101318.47;;;23.75;59.87
11648;BME280;5880;52.342;9.662;2023-08-17T08:53:38;101316.41;;;23.81;59.66
11648;BME280;5880;52.342;9.662;2023-08-17T08:56:10;101313.63;;;23.81;59.79
11648;BME280;5880;52.342;9.662;2023-08-17T08:58:39;101316.41;;;23.81;59.57
11648;BME280;5880;52.342;9.662;2023-08-17T09:01:07;101312.50;;;23.82;60.10
11648;BME280;5880;52.342;9.662;2023-08-17T09:03:36;101328.09;;;23.83;60.03
11648;BME280;5880;52.342;9.662;2023-08-17T09:06:03;101316.72;;;23.79;59.99
11648;BME280;5880;52.342;9.662;2023-08-17T09:08:30;101316.72;;;23.79;59.88
11648;BME280;5880;52.342;9.662;2023-08-17T09:10:56;101314.56;;;23.76;59.79
11648;BME280;5880;52.342;9.662;2023-08-17T09:13:22;101325.09;;;23.79;59.63
11648;BME280;5880;52.342;9.662;2023-08-17T09:15:48;101319.88;;;23.73;59.87
11648;BME280;5880;52.342;9.662;2023-08-17T09:18:15;101321.25;;;23.75;59.65
11648;BME280;5880;52.342;9.662;2023-08-17T09:20:47;101320.16;;;23.71;59.80
11648;BME280;5880;52.342;9.662;2023-08-17T09:23:18;101325.22;;;23.69;59.86
11648;BME280;5880;52.342;9.662;2023-08-17T09:25:49;101324.94;;;23.71;59.87
11648;BME280;5880;52.342;9.662;2023-08-17T09:28:19;101311.88;;;23.66;59.88
11648;BME280;5880;52.342;9.662;2023-08-17T09:31:01;101318.75;;;23.74;59.90
11648;BME280;5880;52.342;9.662;2023-08-17T09:33:32;101311.50;;;23.73;59.57
11648;BME280;5880;52.342;9.662;2023-08-17T09:35:59;101318.75;;;23.74;59.49
11648;BME280;5880;52.342;9.662;2023-08-17T09:38:27;101318.22;;;23.72;59.63
11648;BME280;5880;52.342;9.662;2023-08-17T09:40:53;101311.78;;;23.71;59.76
11648;BME280;5880;52.342;9.662;2023-08-17T09:43:19;101312.31;;;23.73;59.90
11648;BME280;5880;52.342;9.662;2023-08-17T09:45:49;101308.19;;;23.71;59.83
11648;BME280;5880;52.342;9.662;2023-08-17T09:48:19;101307.97;;;23.67;59.79
11648;BME280;5880;52.342;9.662;2023-08-17T09:50:46;101304.34;;;23.67;59.55
11648;BME280;5880;52.342;9.662;2023-08-17T09:53:19;101306.31;;;23.66;59.56
11648;BME280;5880;52.342;9.662;2023-08-17T09:55:45;101302.16;;;23.64;59.72
11648;BME280;5880;52.342;9.662;2023-08-17T09:58:12;101294.50;;;23.55;59.67
11648;BME280;5880;52.342;9.662;2023-08-17T10:00:48;101302.25;;;23.58;59.60
11648;BME280;5880;52.342;9.662;2023-08-17T10:03:17;101305.94;;;23.54;59.58
11648;BME280;5880;52.342;9.662;2023-08-17T10:05:48;101310.72;;;23.53;59.82
11648;BME280;5880;52.342;9.662;2023-08-17T10:08:20;101322.16;;;23.52;59.98
11648;BME280;5880;52.342;9.662;2023-08-17T10:10:47;101322.47;;;23.50;59.67
11648;BME280;5880;52.342;9.662;2023-08-17T10:13:35;101328.56;;;23.52;59.37
11648;BME280;5880;52.342;9.662;2023-08-17T10:16:26;101321.94;;;23.48;59.41
11648;BME280;5880;52.342;9.662;2023-08-17T10:19:12;101325.94;;;23.42;59.52
11648;BME280;5880;52.342;9.662;2023-08-17T10:21:50;101334.41;;;23.37;59.48
11648;BME280;5880;52.342;9.662;2023-08-17T10:24:19;101324.13;;;23.32;59.78
11648;BME280;5880;52.342;9.662;2023-08-17T10:26:45;101318.94;;;23.26;59.53
11648;BME280;5880;52.342;9.662;2023-08-17T10:29:12;101325.34;;;23.26;59.59
11648;BME280;5880;52.342;9.662;2023-08-17T10:31:38;101324.50;;;23.26;59.58
11648;BME280;5880;52.342;9.662;2023-08-17T10:34:04;101312.00;;;23.23;59.55
11648;BME280;5880;52.342;9.662;2023-08-17T10:36:32;101321.19;;;23.24;59.70
11648;BME280;5880;52.342;9.662;2023-08-17T10:39:25;101317.88;;;23.22;59.38
11648;BME280;5880;52.342;9.662;2023-08-17T10:41:52;101328.81;;;23.18;59.48
11648;BME280;5880;52.342;9.662;2023-08-17T10:44:46;101333.84;;;23.16;59.32
11648;BME280;5880;52.342;9.662;2023-08-17T10:49:57;101337.22;;;23.13;59.47
11648;BME280;5880;52.342;9.662;2023-08-17T10:52:44;101339.78;;;23.09;59.39
11648;BME280;5880;52.342;9.662;2023-08-17T10:55:10;101338.13;;;23.08;59.56
11648;BME280;5880;52.342;9.662;2023-08-17T10:57:39;101341.75;;;23.09;59.62
11648;BME280;5880;52.342;9.662;2023-08-17T11:00:22;101345.59;;;23.13;59.38
11648;BME280;5880;52.342;9.662;2023-08-17T11:03:20;101344.75;;;23.12;59.26
11648;BME280;5880;52.342;9.662;2023-08-17T11:05:55;101348.63;;;23.16;59.31
11648;BME280;5880;52.342;9.662;2023-08-17T11:08:51;101347.19;;;23.19;59.23
11648;BME280;5880;52.342;9.662;2023-08-17T11:11:20;101356.91;;;23.22;59.31
11648;BME280;5880;52.342;9.662;2023-08-17T11:13:47;101361.94;;;23.20;59.36
11648;BME280;5880;52.342;9.662;2023-08-17T11:16:15;101359.47;;;23.18;59.07
11648;BME280;5880;52.342;9.662;2023-08-17T11:18:42;101357.81;;;23.17;59.06
11648;BME280;5880;52.342;9.662;2023-08-17T11:21:08;101365.34;;;23.16;59.04
11648;BME280;5880;52.342;9.662;2023-08-17T11:23:37;101366.16;;;23.17;58.92
11648;BME280;5880;52.342;9.662;2023-08-17T11:26:03;101363.47;;;23.12;58.84
11648;BME280;5880;52.342;9.662;2023-08-17T11:28:31;101367.31;;;23.16;59.01
11648;BME280;5880;52.342;9.662;2023-08-17T11:31:07;101365.34;;;23.16;58.99
11648;BME280;5880;52.342;9.662;2023-08-17T11:33:36;101359.78;;;23.16;58.85
11648;BME280;5880;52.342;9.662;2023-08-17T11:36:05;101369.78;;;23.17;58.85
11648;BME280;5880;52.342;9.662;2023-08-17T11:38:37;101377.84;;;23.19;58.66
11648;BME280;5880;52.342;9.662;2023-08-17T11:41:06;101377.31;;;23.17;58.71
11648;BME280;5880;52.342;9.662;2023-08-17T11:43:34;101370.09;;;23.16;58.82
11648;BME280;5880;52.342;9.662;2023-08-17T11:46:01;101370.09;;;23.16;58.95
11648;BME280;5880;52.342;9.662;2023-08-17T11:48:27;101364.81;;;23.14;58.80
11648;BME280;5880;52.342;9.662;2023-08-17T11:50:54;101384.56;;;23.18;58.65
11648;BME280;5880;52.342;9.662;2023-08-17T11:53:23;101382.91;;;23.17;58.82
11648;BME280;5880;52.342;9.662;2023-08-17T11:55:49;101384.03;;;23.16;58.76
11648;BME280;5880;52.342;9.662;2023-08-17T11:58:15;101372.88;;;23.16;58.93
11648;BME280;5880;52.342;9.662;2023-08-17T12:00:43;101372.34;;;23.14;58.81
11648;BME280;5880;52.342;9.662;2023-08-17T12:03:16;101379.50;;;23.20;58.75
11648;BME280;5880;52.342;9.662;2023-08-17T12:05:44;101381.72;;;23.23;58.86
11648;BME280;5880;52.342;9.662;2023-08-17T12:08:12;101379.13;;;23.27;59.16
11648;BME280;5880;52.342;9.662;2023-08-17T12:10:38;101376.06;;;23.28;58.97
11648;BME280;5880;52.342;9.662;2023-08-17T12:13:04;101374.09;;;23.29;58.80
11648;BME280;5880;52.342;9.662;2023-08-17T12:15:34;101366.88;;;23.28;58.92
11648;BME280;5880;52.342;9.662;2023-08-17T12:18:03;101374.63;;;23.31;58.76
11648;BME280;5880;52.342;9.662;2023-08-17T12:20:32;101380.00;;;23.27;58.65
11648;BME280;5880;52.342;9.662;2023-08-17T12:22:58;101380.00;;;23.27;58.71
11648;BME280;5880;52.342;9.662;2023-08-17T12:25:25;101378.84;;;23.28;58.77
11648;BME280;5880;52.342;9.662;2023-08-17T12:27:51;101375.78;;;23.30;58.76
11648;BME280;5880;52.342;9.662;2023-08-17T12:30:29;101370.47;;;23.28;58.68
11648;BME280;5880;52.342;9.662;2023-08-17T12:32:58;101372.13;;;23.29;58.65
11648;BME280;5880;52.342;9.662;2023-08-17T12:35:25;101370.78;;;23.27;58.50
11648;BME280;5880;52.342;9.662;2023-08-17T12:37:52;101374.09;;;23.29;58.55
11648;BME280;5880;52.342;9.662;2023-08-17T12:40:19;101377.72;;;23.29;58.71
11648;BME280;5880;52.342;9.662;2023-08-17T12:42:45;101370.47;;;23.28;58.41
11648;BME280;5880;52.342;9.662;2023-08-17T12:45:11;101368.22;;;23.30;58.75
11648;BME280;5880;52.342;9.662;2023-08-17T12:47:37;101364.84;;;23.33;58.68
11648;BME280;5880;52.342;9.662;2023-08-17T12:50:04;101377.66;;;23.34;58.61
11648;BME280;5880;52.342;9.662;2023-08-17T12:52:29;101365.66;;;23.34;58.49
11648;BME280;5880;52.342;9.662;2023-08-17T12:54:55;101367.09;;;23.31;58.47
11648;BME280;5880;52.342;9.662;2023-08-17T12:57:21;101367.88;;;23.37;58.40
11648;BME280;5880;52.342;9.662;2023-08-17T12:59:46;101372.00;;;23.39;58.51
11648;BME280;5880;52.342;9.662;2023-08-17T13:02:12;101364.53;;;23.35;58.56
11648;BME280;5880;52.342;9.662;2023-08-17T13:04:38;101368.16;;;23.35;58.34
11648;BME280;5880;52.342;9.662;2023-08-17T13:07:03;101365.13;;;23.32;58.49